Time;durP1;ratioP1;P1;durP2;ratioP2;P2;SDS_P1;SDS_P2;PMS_P1;PMS_P2;Temp;Humidity;BMP_temperature;BMP_pressure;BME280_temperature;BME280_humidity;BME280_pressure;Samples;Min_cycle;Max_cycle;Signal;HPM_P1;HPM_P2
2021/10/12 00:00:03;;;;;;;0.50;0.40;;;11.00;99.90;;;;;;5057434;28;20298;-80
2021/10/12 00:02:29;;;;;;;0.50;0.40;;;11.00;99.90;;;;;;5058425;28;20206;-80
2021/10/12 00:04:56;;;;;;;0.50;0.40;;;11.00;99.90;;;;;;5057336;28;20197;-80
2021/10/12 00:07:23;;;;;;;0.50;0.40;;;11.00;99.90;;;;;;5057787;28;20550;-78
2021/10/12 00:09:50;;;;;;;0.50;0.40;;;11.00;99.90;;;;;;5057774;28;20571;-80
2021/10/12 00:12:16;;;;;;;0.50;0.40;;;11.00;99.90;;;;;;5058379;28;20202;-80
2021/10/12 00:14:44;;;;;;;0.50;0.40;;;11.00;99.90;;;;;;5063619;28;20210;-81
2021/10/12 00:17:12;;;;;;;4.97;0.55;;;11.00;99.90;;;;;;5064664;28;20201;-79
2021/10/12 00:19:40;;;;;;;0.50;0.40;;;10.90;99.90;;;;;;5062435;28;20221;-80
2021/10/12 00:22:08;;;;;;;0.50;0.40;;;10.90;99.90;;;;;;5057247;28;20205;-79
2021/10/12 00:24:35;;;;;;;0.50;0.40;;;10.90;99.90;;;;;;5063600;28;20653;-79
2021/10/12 00:27:01;;;;;;;0.50;0.40;;;10.80;99.90;;;;;;5057136;28;20200;-80
2021/10/12 00:29:28;;;;;;;0.50;0.40;;;10.80;99.90;;;;;;5055792;28;20226;-81
2021/10/12 00:31:55;;;;;;;0.50;0.30;;;10.80;99.90;;;;;;5056363;28;20204;-79
2021/10/12 00:34:23;;;;;;;0.50;0.40;;;10.80;99.90;;;;;;5056661;28;20196;-81
2021/10/12 00:36:50;;;;;;;0.50;0.40;;;10.80;99.90;;;;;;5056250;28;20200;-81
2021/10/12 00:39:16;;;;;;;0.50;0.40;;;10.80;99.90;;;;;;5055357;28;20216;-78
2021/10/12 00:41:43;;;;;;;0.50;0.40;;;10.80;99.90;;;;;;5055921;28;20665;-79
2021/10/12 00:44:10;;;;;;;0.50;0.40;;;10.80;99.90;;;;;;5055881;28;20563;-81
2021/10/12 00:46:38;;;;;;;0.50;0.40;;;10.80;99.90;;;;;;5055472;28;20197;-81
2021/10/12 00:49:05;;;;;;;0.60;0.50;;;10.70;99.90;;;;;;5055355;28;20232;-78
2021/10/12 00:51:33;;;;;;;0.50;0.40;;;10.70;99.90;;;;;;5054912;28;20198;-81
2021/10/12 00:54:00;;;;;;;0.50;0.40;;;10.70;99.90;;;;;;5054336;28;20233;-81
2021/10/12 00:56:27;;;;;;;0.50;0.40;;;10.70;99.90;;;;;;5055202;28;20197;-81
2021/10/12 00:58:53;;;;;;;0.50;0.40;;;10.70;99.90;;;;;;5055270;28;20218;-80
2021/10/12 01:01:21;;;;;;;1.73;1.63;;;10.70;99.90;;;;;;5054346;28;20222;-81
2021/10/12 01:03:48;;;;;;;0.50;0.40;;;10.70;99.90;;;;;;5055162;28;20201;-81
2021/10/12 01:06:15;;;;;;;0.80;0.65;;;10.70;99.90;;;;;;5054311;28;20207;-81
2021/10/12 01:08:43;;;;;;;0.88;0.88;;;10.70;99.90;;;;;;5055265;28;20215;-81
2021/10/12 01:11:11;;;;;;;0.50;0.40;;;10.70;99.90;;;;;;5054627;28;20205;-80
2021/10/12 01:13:39;;;;;;;10.57;1.40;;;10.70;99.90;;;;;;5054743;28;20192;-80
2021/10/12 01:16:06;;;;;;;0.50;0.40;;;10.70;99.90;;;;;;5054311;28;20192;-81
2021/10/12 01:18:33;;;;;;;0.50;0.40;;;10.70;99.90;;;;;;5054725;28;20211;-81
2021/10/12 01:21:01;;;;;;;0.50;0.40;;;10.70;99.90;;;;;;5054384;28;20287;-81
2021/10/12 01:23:28;;;;;;;1.08;1.08;;;10.70;99.90;;;;;;5054536;28;20552;-81
2021/10/12 01:25:55;;;;;;;0.50;0.40;;;10.70;99.90;;;;;;5054130;28;20210;-81
2021/10/12 01:28:22;;;;;;;0.50;0.40;;;10.70;99.90;;;;;;5053814;28;20241;-80
2021/10/12 01:30:51;;;;;;;0.50;0.40;;;10.70;99.90;;;;;;5053734;28;20196;-81
2021/10/12 01:33:18;;;;;;;0.50;0.40;;;10.70;99.90;;;;;;5054148;28;20200;-81
2021/10/12 01:35:50;;;;;;;0.50;0.40;;;10.70;99.90;;;;;;5053999;28;20267;-82
2021/10/12 01:38:18;;;;;;;0.50;0.40;;;10.70;99.90;;;;;;5054007;28;20187;-82
2021/10/12 01:40:45;;;;;;;1.08;1.08;;;10.70;99.90;;;;;;5055682;28;20201;-81
2021/10/12 01:43:11;;;;;;;0.50;0.40;;;10.70;99.90;;;;;;5053655;28;20193;-77
2021/10/12 01:45:38;;;;;;;0.95;0.90;;;10.80;99.90;;;;;;5053767;28;20208;-80
2021/10/12 01:48:06;;;;;;;0.50;0.40;;;10.70;99.90;;;;;;5053874;28;20206;-81
2021/10/12 01:50:32;;;;;;;0.50;0.40;;;10.80;99.90;;;;;;5053373;28;20213;-82
2021/10/12 01:52:59;;;;;;;0.50;0.40;;;10.80;99.90;;;;;;5054557;28;20204;-81
2021/10/12 01:55:27;;;;;;;0.50;0.40;;;10.80;99.90;;;;;;5054250;28;20197;-81
2021/10/12 01:57:54;;;;;;;0.50;0.40;;;10.70;99.90;;;;;;5054355;28;20204;-81
2021/10/12 02:00:21;;;;;;;0.50;0.40;;;10.70;99.90;;;;;;5053543;28;20225;-81
2021/10/12 02:02:47;;;;;;;0.50;0.40;;;10.70;99.90;;;;;;5053719;28;20194;-81
2021/10/12 02:05:14;;;;;;;0.85;0.85;;;10.70;99.90;;;;;;5052586;28;20239;-77
2021/10/12 02:07:41;;;;;;;0.60;0.50;;;10.70;99.90;;;;;;5053908;28;20191;-81
2021/10/12 02:10:09;;;;;;;0.60;0.57;;;10.70;99.90;;;;;;5052972;28;20227;-80
2021/10/12 02:12:37;;;;;;;2.25;1.02;;;10.70;99.90;;;;;;5054151;28;20203;-81
2021/10/12 02:15:04;;;;;;;0.50;0.40;;;10.60;99.90;;;;;;5054400;28;20205;-80
2021/10/12 02:17:31;;;;;;;0.50;0.40;;;10.60;99.90;;;;;;5054016;28;20207;-80
2021/10/12 02:19:58;;;;;;;0.50;0.40;;;10.60;99.90;;;;;;5053828;28;20211;-80
2021/10/12 02:22:25;;;;;;;0.50;0.40;;;10.60;99.90;;;;;;5053912;28;20201;-79
2021/10/12 02:24:52;;;;;;;0.50;0.40;;;10.60;99.90;;;;;;5053514;28;20203;-81
2021/10/12 02:27:19;;;;;;;3.50;3.20;;;10.60;99.90;;;;;;5053692;28;20204;-81
2021/10/12 02:29:48;;;;;;;0.60;0.60;;;10.70;99.90;;;;;;5053173;28;20682;-80
2021/10/12 02:32:15;;;;;;;2.45;1.95;;;10.70;99.90;;;;;;5052581;28;20206;-81
2021/10/12 02:34:42;;;;;;;2.05;1.95;;;10.60;99.90;;;;;;5052775;28;20195;-81
2021/10/12 02:37:08;;;;;;;0.50;0.40;;;10.60;99.90;;;;;;5052756;28;20203;-81
2021/10/12 02:39:35;;;;;;;0.50;0.40;;;10.60;99.90;;;;;;5052819;28;20221;-80
2021/10/12 02:42:03;;;;;;;0.50;0.40;;;10.60;99.90;;;;;;5052911;28;20212;-81
2021/10/12 02:44:29;;;;;;;0.60;0.50;;;10.60;99.90;;;;;;5052422;28;20204;-80
2021/10/12 02:46:58;;;;;;;1.35;1.15;;;10.60;99.90;;;;;;5053107;28;20200;-81
2021/10/12 02:49:25;;;;;;;0.50;0.40;;;10.60;99.90;;;;;;5052400;28;20231;-80
2021/10/12 02:51:51;;;;;;;0.50;0.40;;;10.60;99.90;;;;;;5052871;28;20208;-82
2021/10/12 02:54:18;;;;;;;2.45;0.65;;;10.60;99.90;;;;;;5052987;28;20199;-80
2021/10/12 02:56:45;;;;;;;0.50;0.40;;;10.60;99.90;;;;;;5052694;28;20683;-80
2021/10/12 02:59:12;;;;;;;2.75;1.73;;;10.60;99.90;;;;;;5052326;28;20221;-82
2021/10/12 03:01:38;;;;;;;0.55;0.50;;;10.60;99.90;;;;;;5052358;28;20322;-81
2021/10/12 03:04:06;;;;;;;0.50;0.50;;;10.50;99.90;;;;;;5052580;28;20661;-81
2021/10/12 03:06:34;;;;;;;0.50;0.40;;;10.50;99.90;;;;;;5052760;28;20204;-80
2021/10/12 03:09:00;;;;;;;0.50;0.40;;;10.50;99.90;;;;;;5052523;28;20219;-82
2021/10/12 03:11:27;;;;;;;0.50;0.40;;;10.40;99.90;;;;;;5053167;28;20509;-80
2021/10/12 03:13:54;;;;;;;0.50;0.40;;;10.50;99.90;;;;;;5053226;28;20195;-80
2021/10/12 03:16:21;;;;;;;0.50;0.40;;;10.40;99.90;;;;;;5052315;28;20202;-82
2021/10/12 03:18:48;;;;;;;0.50;0.40;;;10.50;99.90;;;;;;5052319;28;20731;-80
2021/10/12 03:21:17;;;;;;;0.50;0.40;;;10.40;99.90;;;;;;5052198;28;20654;-81
2021/10/12 03:23:44;;;;;;;0.50;0.40;;;10.50;99.90;;;;;;5053206;28;20248;-81
2021/10/12 03:26:11;;;;;;;0.50;0.50;;;10.40;99.90;;;;;;5052623;28;20223;-80
2021/10/12 03:28:38;;;;;;;0.50;0.50;;;10.40;99.90;;;;;;5052374;28;20229;-81
2021/10/12 03:31:05;;;;;;;0.82;0.82;;;10.40;99.90;;;;;;5051918;28;20220;-80
2021/10/12 03:33:32;;;;;;;0.50;0.50;;;10.40;99.90;;;;;;5052678;28;20203;-80
2021/10/12 03:36:00;;;;;;;0.50;0.40;;;10.40;99.90;;;;;;5052526;28;20193;-80
2021/10/12 03:38:29;;;;;;;0.50;0.40;;;10.30;99.90;;;;;;5052264;28;20710;-81
2021/10/12 03:40:56;;;;;;;0.55;0.45;;;10.30;99.90;;;;;;5052113;28;20195;-80
2021/10/12 03:43:24;;;;;;;0.50;0.40;;;10.30;99.90;;;;;;5052284;28;20203;-81
2021/10/12 03:45:51;;;;;;;0.50;0.40;;;10.30;99.90;;;;;;5052605;28;20213;-78
2021/10/12 03:48:17;;;;;;;0.68;0.68;;;10.30;99.90;;;;;;5052522;28;20200;-81
2021/10/12 03:50:44;;;;;;;0.50;0.40;;;10.30;99.90;;;;;;5052173;28;20219;-80
2021/10/12 03:53:11;;;;;;;2.45;1.02;;;10.30;99.90;;;;;;5052183;28;20211;-80
2021/10/12 03:55:39;;;;;;;2.55;2.40;;;10.30;99.90;;;;;;5052677;28;20550;-80
2021/10/12 03:58:06;;;;;;;2.25;1.42;;;10.30;99.90;;;;;;5051907;28;20193;-80
2021/10/12 04:00:33;;;;;;;3.47;1.38;;;10.30;99.90;;;;;;5051774;28;20196;-80
2021/10/12 04:03:00;;;;;;;3.15;2.85;;;10.30;99.90;;;;;;5052407;28;20198;-80
2021/10/12 04:05:27;;;;;;;0.50;0.50;;;10.20;99.90;;;;;;5052322;28;20208;-80
2021/10/12 04:07:54;;;;;;;0.50;0.40;;;10.10;99.90;;;;;;5051851;28;20201;-80
2021/10/12 04:10:21;;;;;;;3.45;3.15;;;10.10;99.90;;;;;;5051993;28;20223;-80
2021/10/12 04:12:49;;;;;;;0.60;0.50;;;10.20;99.90;;;;;;5052376;28;20208;-81
2021/10/12 04:15:16;;;;;;;3.10;2.90;;;10.20;99.90;;;;;;5052001;28;20192;-78
2021/10/12 04:17:42;;;;;;;0.50;0.40;;;10.20;99.90;;;;;;5051391;28;20205;-79
2021/10/12 04:20:11;;;;;;;0.50;0.50;;;10.20;99.90;;;;;;5051711;28;20212;-81
2021/10/12 04:22:38;;;;;;;1.20;1.20;;;10.20;99.90;;;;;;5051902;28;20680;-81
2021/10/12 04:25:05;;;;;;;4.65;2.22;;;10.20;99.90;;;;;;5052208;28;20206;-80
2021/10/12 04:27:33;;;;;;;0.50;0.40;;;10.10;99.90;;;;;;5052568;28;20195;-80
2021/10/12 04:30:01;;;;;;;0.50;0.40;;;10.10;99.90;;;;;;5056406;28;20307;-81
2021/10/12 04:32:28;;;;;;;1.00;0.95;;;10.10;99.90;;;;;;5055321;28;20228;-81
2021/10/12 04:34:55;;;;;;;1.98;1.85;;;10.10;99.90;;;;;;5056298;28;20197;-79
2021/10/12 04:37:22;;;;;;;3.30;2.28;;;10.10;99.90;;;;;;5055975;28;20262;-79
2021/10/12 04:39:48;;;;;;;2.15;1.40;;;10.10;99.90;;;;;;5054985;28;20219;-81
2021/10/12 04:42:15;;;;;;;0.80;0.80;;;10.10;99.90;;;;;;5055372;28;20216;-81
2021/10/12 04:44:42;;;;;;;0.50;0.40;;;10.00;99.90;;;;;;5055660;28;20200;-81
2021/10/12 04:47:11;;;;;;;1.13;1.05;;;10.00;99.90;;;;;;5055258;28;20195;-80
2021/10/12 04:49:38;;;;;;;2.60;2.42;;;10.00;99.90;;;;;;5055709;28;20211;-80
2021/10/12 04:52:05;;;;;;;0.50;0.40;;;10.00;99.90;;;;;;5055176;28;20671;-79
2021/10/12 04:54:32;;;;;;;0.50;0.40;;;10.00;99.90;;;;;;5055175;28;20195;-80
2021/10/12 04:56:59;;;;;;;6.65;2.15;;;10.00;99.90;;;;;;5055325;28;20198;-80
2021/10/12 04:59:25;;;;;;;0.50;0.40;;;10.10;99.90;;;;;;5054620;28;20228;-81
2021/10/12 05:01:52;;;;;;;0.50;0.40;;;10.00;99.90;;;;;;5055335;28;20196;-80
2021/10/12 05:04:20;;;;;;;1.63;1.52;;;10.00;99.90;;;;;;5055362;28;20196;-80
2021/10/12 05:06:47;;;;;;;0.80;0.80;;;10.00;99.90;;;;;;5054959;28;20677;-80
2021/10/12 05:09:14;;;;;;;0.50;0.50;;;10.00;99.90;;;;;;5054740;28;20211;-81
2021/10/12 05:11:41;;;;;;;0.50;0.40;;;10.00;99.90;;;;;;5054776;28;20711;-81
2021/10/12 05:14:07;;;;;;;2.97;2.45;;;10.00;99.90;;;;;;5055361;28;20222;-81
2021/10/12 05:16:34;;;;;;;0.55;0.50;;;10.00;99.90;;;;;;5055004;28;20206;-80
2021/10/12 05:19:01;;;;;;;1.27;1.27;;;10.00;99.90;;;;;;5055205;28;20215;-80
2021/10/12 05:21:31;;;;;;;0.50;0.40;;;10.00;99.90;;;;;;5055044;28;20192;-80
2021/10/12 05:23:59;;;;;;;3.72;3.42;;;10.00;99.90;;;;;;5054291;28;20204;-80
2021/10/12 05:26:25;;;;;;;0.50;0.40;;;10.00;99.90;;;;;;5055252;28;20199;-80
2021/10/12 05:28:53;;;;;;;3.88;1.95;;;10.00;99.90;;;;;;5054907;28;20744;-80
2021/10/12 05:31:21;;;;;;;0.50;0.40;;;10.00;99.90;;;;;;5054469;28;20242;-81
2021/10/12 05:33:49;;;;;;;0.50;0.40;;;10.00;99.90;;;;;;5054637;28;20669;-81
2021/10/12 05:36:16;;;;;;;0.70;0.70;;;10.00;99.90;;;;;;5054463;28;20199;-79
2021/10/12 05:38:45;;;;;;;1.02;0.95;;;10.00;99.90;;;;;;5054194;28;20227;-81
2021/10/12 05:41:12;;;;;;;1.42;1.42;;;10.00;99.90;;;;;;5054872;28;20562;-80
2021/10/12 05:43:39;;;;;;;2.08;1.77;;;9.90;99.90;;;;;;5055411;28;20234;-79
2021/10/12 05:46:06;;;;;;;1.67;1.23;;;10.00;99.90;;;;;;5058308;28;20192;-81
2021/10/12 05:48:33;;;;;;;1.70;0.88;;;10.00;99.90;;;;;;5056627;28;20216;-82
2021/10/12 05:51:00;;;;;;;0.50;0.40;;;10.00;99.90;;;;;;5054239;28;20231;-79
2021/10/12 05:53:28;;;;;;;0.50;0.40;;;10.00;99.90;;;;;;5054645;28;20224;-79
2021/10/12 05:56:02;;;;;;;1.90;1.80;;;10.00;99.90;;;;;;5054457;28;20203;-80
2021/10/12 05:58:35;;;;;;;0.82;0.82;;;10.00;99.90;;;;;;5054591;28;20236;-82
2021/10/12 06:01:04;;;;;;;1.88;1.77;;;10.00;99.90;;;;;;5053333;28;20191;-81
2021/10/12 06:03:31;;;;;;;1.10;1.00;;;10.00;99.90;;;;;;5054947;28;20200;-80
2021/10/12 06:05:58;;;;;;;0.50;0.40;;;9.90;99.90;;;;;;5054354;28;20695;-81
2021/10/12 06:08:25;;;;;;;2.15;0.75;;;9.90;99.90;;;;;;5053661;28;20226;-79
2021/10/12 06:10:52;;;;;;;0.50;0.40;;;10.00;99.90;;;;;;5053148;28;20309;-82
2021/10/12 06:13:22;;;;;;;0.60;0.52;;;10.00;99.90;;;;;;5054232;28;20207;-79
2021/10/12 06:15:48;;;;;;;2.13;1.35;;;10.00;99.90;;;;;;5054244;28;20205;-81
2021/10/12 06:18:15;;;;;;;0.77;0.60;;;10.00;99.90;;;;;;5053591;28;20709;-80
2021/10/12 06:20:42;;;;;;;2.75;1.77;;;10.00;99.90;;;;;;5054128;28;20195;-80
2021/10/12 06:23:09;;;;;;;27.85;2.25;;;10.00;99.90;;;;;;5054087;28;20586;-80
2021/10/12 06:25:37;;;;;;;0.73;0.73;;;10.00;99.90;;;;;;5054688;28;20219;-80
2021/10/12 06:28:05;;;;;;;0.50;0.40;;;10.00;99.90;;;;;;5053678;28;20199;-80
2021/10/12 06:30:33;;;;;;;3.55;3.28;;;10.00;99.90;;;;;;5054438;28;20309;-81
2021/10/12 06:33:00;;;;;;;0.50;0.50;;;10.00;99.90;;;;;;5054565;28;20200;-81
2021/10/12 06:35:29;;;;;;;0.50;0.40;;;10.00;99.90;;;;;;5054373;28;20195;-80
2021/10/12 06:37:56;;;;;;;0.50;0.40;;;10.00;99.90;;;;;;5055086;28;20203;-80
2021/10/12 06:40:23;;;;;;;0.50;0.40;;;10.00;99.90;;;;;;5053747;28;20226;-79
2021/10/12 06:42:50;;;;;;;0.70;0.70;;;10.00;99.90;;;;;;5053582;28;20597;-81
2021/10/12 06:45:18;;;;;;;0.70;0.70;;;10.10;99.90;;;;;;5053962;28;20203;-77
2021/10/12 06:47:48;;;;;;;0.50;0.40;;;10.10;99.90;;;;;;5053851;28;20208;-81
2021/10/12 06:50:15;;;;;;;0.55;0.52;;;10.10;99.90;;;;;;5053273;28;20216;-80
2021/10/12 06:52:42;;;;;;;4.38;1.00;;;10.10;99.90;;;;;;5054022;28;20207;-80
2021/10/12 06:55:10;;;;;;;0.50;0.40;;;10.10;99.90;;;;;;5052766;28;20680;-80
2021/10/12 06:57:37;;;;;;;0.50;0.40;;;10.20;99.90;;;;;;5056012;28;20236;-80
2021/10/12 07:00:06;;;;;;;0.50;0.40;;;10.20;99.90;;;;;;5069208;28;20225;-82
2021/10/12 07:02:32;;;;;;;1.05;1.05;;;10.20;99.90;;;;;;5073669;28;20198;-80
2021/10/12 07:05:01;;;;;;;0.50;0.50;;;10.20;99.90;;;;;;5073372;28;20206;-81
2021/10/12 07:07:27;;;;;;;1.90;1.15;;;10.20;99.90;;;;;;5073153;28;20191;-78
2021/10/12 07:09:54;;;;;;;0.65;0.65;;;10.20;99.90;;;;;;5073993;28;20230;-83
2021/10/12 07:12:21;;;;;;;1.25;1.15;;;10.20;99.90;;;;;;5073805;28;20220;-80
2021/10/12 07:14:47;;;;;;;0.50;0.40;;;10.20;99.90;;;;;;5074459;28;20199;-81
2021/10/12 07:17:14;;;;;;;1.60;1.50;;;10.20;99.90;;;;;;5073130;28;20570;-81
2021/10/12 07:19:41;;;;;;;1.13;0.93;;;10.20;99.90;;;;;;5073639;28;20222;-80
2021/10/12 07:22:09;;;;;;;0.82;0.82;;;10.20;99.90;;;;;;5073888;28;20193;-82
2021/10/12 07:24:36;;;;;;;4.15;3.60;;;10.20;99.90;;;;;;5074128;28;20207;-83
2021/10/12 07:27:03;;;;;;;0.50;0.40;;;10.20;99.90;;;;;;5073781;28;20564;-80
2021/10/12 07:29:29;;;;;;;0.57;0.57;;;10.20;99.90;;;;;;5073824;28;20237;-80
2021/10/12 07:31:56;;;;;;;0.95;0.95;;;10.30;99.90;;;;;;5074061;28;20221;-81
2021/10/12 07:34:23;;;;;;;4.00;1.20;;;10.30;99.90;;;;;;5073307;28;20194;-82
2021/10/12 07:36:50;;;;;;;0.50;0.40;;;10.30;99.90;;;;;;5075027;28;20199;-81
2021/10/12 07:39:18;;;;;;;0.70;0.70;;;10.30;99.90;;;;;;5097529;22;20230;-78
2021/10/12 07:41:44;;;;;;;0.52;0.50;;;10.40;99.90;;;;;;5045498;28;20629;-79
2021/10/12 07:44:11;;;;;;;0.50;0.40;;;10.40;99.90;;;;;;5039177;28;20196;-79
2021/10/12 07:46:38;;;;;;;0.77;0.77;;;10.50;99.90;;;;;;5039859;28;20202;-78
2021/10/12 07:49:05;;;;;;;0.95;0.75;;;10.50;99.90;;;;;;5038763;28;20212;-78
2021/10/12 07:51:31;;;;;;;0.80;0.80;;;10.50;99.90;;;;;;5038847;28;20220;-78
2021/10/12 07:54:00;;;;;;;0.93;0.93;;;10.50;99.90;;;;;;5039847;28;20196;-78
2021/10/12 07:56:38;;;;;;;1.73;1.67;;;10.50;99.90;;;;;;5040762;28;20253;-79
2021/10/12 07:59:05;;;;;;;0.90;0.90;;;10.60;99.90;;;;;;5038690;28;20221;-78
2021/10/12 08:01:33;;;;;;;0.88;0.88;;;10.50;99.90;;;;;;5039879;28;20192;-78
2021/10/12 08:04:00;;;;;;;3.40;2.22;;;10.60;99.90;;;;;;5043296;28;20226;-78
2021/10/12 08:06:26;;;;;;;0.50;0.40;;;10.60;99.90;;;;;;5043718;28;20247;-78
2021/10/12 08:08:54;;;;;;;0.50;0.50;;;10.70;99.90;;;;;;5043482;28;20548;-78
2021/10/12 08:11:24;;;;;;;0.70;0.70;;;10.70;99.90;;;;;;5042644;28;20232;-78
2021/10/12 08:13:55;;;;;;;5.88;2.72;;;10.80;99.90;;;;;;5043678;28;20187;-78
2021/10/12 08:16:29;;;;;;;0.60;0.57;;;10.80;99.90;;;;;;5044336;28;20196;-78
2021/10/12 08:18:56;;;;;;;0.80;0.80;;;10.70;99.90;;;;;;5044923;28;20205;-79
2021/10/12 08:21:22;;;;;;;0.50;0.40;;;10.80;99.90;;;;;;5043431;28;20216;-78
2021/10/12 08:23:50;;;;;;;0.80;0.80;;;10.80;99.90;;;;;;5044925;28;20200;-78
2021/10/12 08:26:16;;;;;;;2.05;1.85;;;10.70;99.90;;;;;;5043309;28;20272;-78
2021/10/12 08:28:43;;;;;;;0.60;0.50;;;10.80;99.90;;;;;;5043109;28;20196;-78
2021/10/12 08:31:11;;;;;;;2.17;1.15;;;10.80;99.90;;;;;;5044794;28;20221;-78
2021/10/12 08:33:38;;;;;;;0.50;0.40;;;10.80;99.90;;;;;;5044295;28;20577;-78
2021/10/12 08:36:05;;;;;;;1.35;0.98;;;10.80;99.90;;;;;;5043376;28;20200;-78
2021/10/12 08:38:33;;;;;;;0.82;0.75;;;10.80;99.90;;;;;;5044029;28;20196;-79
2021/10/12 08:41:05;;;;;;;0.50;0.40;;;10.90;99.90;;;;;;5043023;28;20225;-78
2021/10/12 08:43:32;;;;;;;1.50;1.35;;;10.90;99.90;;;;;;5043881;28;20209;-79
2021/10/12 08:46:00;;;;;;;0.50;0.40;;;10.90;99.90;;;;;;5044053;28;20197;-79
2021/10/12 08:48:31;;;;;;;1.55;1.45;;;10.90;99.90;;;;;;5044637;28;20194;-79
2021/10/12 08:50:59;;;;;;;0.50;0.40;;;11.00;99.90;;;;;;5043424;28;20321;-78
2021/10/12 08:53:27;;;;;;;0.50;0.40;;;11.00;99.90;;;;;;5043086;28;20195;-79
2021/10/12 08:55:54;;;;;;;1.40;1.30;;;11.00;99.90;;;;;;5044196;28;20296;-78
2021/10/12 08:58:20;;;;;;;2.10;2.00;;;11.10;99.90;;;;;;5043787;28;20204;-78
2021/10/12 09:00:47;;;;;;;1.27;1.17;;;11.00;99.90;;;;;;5042053;28;20227;-78
2021/10/12 09:03:18;;;;;;;0.50;0.40;;;11.10;99.90;;;;;;5044165;28;20673;-79
2021/10/12 09:05:54;;;;;;;2.92;2.75;;;11.20;99.90;;;;;;5043002;28;20750;-78
2021/10/12 09:08:26;;;;;;;0.50;0.50;;;11.20;99.90;;;;;;5043276;28;20197;-79
2021/10/12 09:10:53;;;;;;;0.50;0.50;;;11.20;99.90;;;;;;5043238;28;20221;-79
2021/10/12 09:13:20;;;;;;;0.93;0.93;;;11.20;99.90;;;;;;5043324;28;20201;-78
2021/10/12 09:16:05;;;;;;;0.73;0.73;;;11.30;99.90;;;;;;5043586;28;20591;-78
2021/10/12 09:18:53;;;;;;;0.50;0.40;;;11.30;99.90;;;;;;5043856;28;20201;-78
2021/10/12 09:21:23;;;;;;;0.50;0.40;;;11.30;99.90;;;;;;5042595;28;20223;-78
2021/10/12 09:23:51;;;;;;;0.50;0.40;;;11.40;99.90;;;;;;5043872;28;20737;-80
2021/10/12 09:26:23;;;;;;;0.50;0.40;;;11.40;99.90;;;;;;5042306;28;20216;-79
2021/10/12 09:28:51;;;;;;;0.63;0.63;;;11.60;99.90;;;;;;5043025;28;20261;-78
2021/10/12 09:31:17;;;;;;;0.85;0.85;;;11.60;99.90;;;;;;5041969;28;20228;-78
2021/10/12 09:33:49;;;;;;;0.70;0.70;;;11.60;99.90;;;;;;5042865;28;20698;-79
2021/10/12 09:36:30;;;;;;;0.60;0.52;;;11.60;99.90;;;;;;5043548;28;20207;-78
2021/10/12 09:38:58;;;;;;;0.50;0.40;;;11.50;99.90;;;;;;5043097;28;20564;-79
2021/10/12 09:41:26;;;;;;;0.60;0.60;;;11.50;99.90;;;;;;5041220;28;20225;-78
2021/10/12 09:43:53;;;;;;;0.50;0.40;;;11.60;99.90;;;;;;5042823;28;20264;-79
2021/10/12 09:46:28;;;;;;;0.50;0.40;;;11.60;99.90;;;;;;5041953;28;20205;-78
2021/10/12 09:48:55;;;;;;;2.97;0.93;;;11.60;99.90;;;;;;5042376;28;20179;-79
2021/10/12 09:51:22;;;;;;;0.60;0.50;;;11.70;99.90;;;;;;5042041;28;20252;-78
2021/10/12 09:53:50;;;;;;;0.70;0.70;;;11.80;99.90;;;;;;5042285;28;20208;-78
2021/10/12 09:56:17;;;;;;;1.17;1.00;;;11.90;99.90;;;;;;5041447;28;20213;-78
2021/10/12 09:58:45;;;;;;;1.52;1.42;;;12.00;99.90;;;;;;5041279;28;20212;-78
2021/10/12 10:01:13;;;;;;;0.50;0.30;;;12.10;99.90;;;;;;5039238;28;20219;-76
2021/10/12 10:03:39;;;;;;;1.98;1.63;;;12.10;99.90;;;;;;5041759;28;20663;-78
2021/10/12 10:06:10;;;;;;;0.70;0.60;;;12.10;99.90;;;;;;5041689;28;20196;-78
2021/10/12 10:08:40;;;;;;;1.33;0.77;;;12.10;99.90;;;;;;5040292;28;20228;-78
2021/10/12 10:11:09;;;;;;;0.50;0.40;;;12.10;99.90;;;;;;5041112;28;20221;-78
2021/10/12 10:13:38;;;;;;;0.50;0.40;;;12.10;99.90;;;;;;5040088;28;20196;-78
2021/10/12 10:16:09;;;;;;;0.50;0.40;;;12.20;99.90;;;;;;5039893;28;20198;-78
2021/10/12 10:18:37;;;;;;;0.50;0.50;;;12.10;99.90;;;;;;5040764;28;20179;-79
2021/10/12 10:21:04;;;;;;;0.50;0.38;;;12.20;99.90;;;;;;5039746;28;20222;-78
2021/10/12 10:23:54;;;;;;;0.50;0.40;;;12.20;99.90;;;;;;5040539;28;20281;-79
2021/10/12 10:26:30;;;;;;;4.25;3.92;;;12.10;99.90;;;;;;5039411;28;20206;-79
2021/10/12 10:29:18;;;;;;;4.32;4.07;;;12.10;99.90;;;;;;5040268;28;20183;-78
2021/10/12 10:31:47;;;;;;;0.50;0.40;;;12.10;99.90;;;;;;5039944;28;20719;-78
2021/10/12 10:34:45;;;;;;;0.70;0.70;;;12.00;99.90;;;;;;5041109;28;20198;-78
2021/10/12 10:37:31;;;;;;;0.50;0.40;;;12.10;99.90;;;;;;4979334;28;20180;-78
2021/10/12 10:40:30;;;;;;;0.50;0.40;;;12.10;99.90;;;;;;5035030;28;20226;-79
2021/10/12 10:42:59;;;;;;;0.50;0.40;;;12.20;99.90;;;;;;5041161;28;20206;-79
2021/10/12 10:45:50;;;;;;;0.50;0.40;;;12.30;99.90;;;;;;5040184;28;20461;-78
2021/10/12 10:48:19;;;;;;;1.38;1.27;;;12.40;99.90;;;;;;5040072;28;20195;-78
2021/10/12 10:50:47;;;;;;;0.50;0.40;;;12.40;99.90;;;;;;5039308;28;20248;-78
2021/10/12 10:53:14;;;;;;;0.60;0.60;;;12.40;99.90;;;;;;5040357;28;20223;-78
2021/10/12 10:55:45;;;;;;;1.35;1.25;;;12.40;99.90;;;;;;5039731;28;20290;-78
2021/10/12 10:58:18;;;;;;;1.60;1.50;;;12.40;99.90;;;;;;5039732;28;20192;-78
2021/10/12 11:00:46;;;;;;;1.10;0.98;;;12.40;99.90;;;;;;5037992;28;20319;-78
2021/10/12 11:03:40;;;;;;;2.03;1.90;;;12.50;99.90;;;;;;5038851;28;20196;-76
2021/10/12 11:06:18;;;;;;;0.85;0.73;;;12.60;99.90;;;;;;5039330;28;20473;-78
2021/10/12 11:08:59;;;;;;;1.92;1.80;;;12.60;99.90;;;;;;5039980;28;20183;-78
2021/10/12 11:11:31;;;;;;;1.30;1.30;;;12.60;99.90;;;;;;5037715;28;20219;-77
2021/10/12 11:14:00;;;;;;;0.75;0.75;;;12.50;99.90;;;;;;5039596;28;20534;-78
2021/10/12 11:16:34;;;;;;;0.50;0.40;;;12.60;99.90;;;;;;5038817;28;20222;-78
2021/10/12 11:19:02;;;;;;;0.50;0.30;;;12.70;99.90;;;;;;5038995;28;20427;-78
2021/10/12 11:21:29;;;;;;;1.05;0.95;;;12.80;99.90;;;;;;5038964;28;20223;-79
2021/10/12 11:23:57;;;;;;;0.50;0.40;;;12.80;99.90;;;;;;5038512;28;20214;-78
2021/10/12 11:26:27;;;;;;;0.60;0.60;;;12.70;99.90;;;;;;5038746;28;20461;-78
2021/10/12 11:28:55;;;;;;;3.03;2.83;;;12.70;99.90;;;;;;5039580;28;20231;-78
2021/10/12 11:31:25;;;;;;;0.50;0.38;;;12.70;99.90;;;;;;5038773;28;20472;-78
2021/10/12 11:33:53;;;;;;;0.50;0.40;;;12.70;99.90;;;;;;5038585;28;20245;-78
2021/10/12 11:36:22;;;;;;;0.50;0.40;;;12.70;99.90;;;;;;5040610;28;20469;-78
2021/10/12 11:38:53;;;;;;;0.50;0.40;;;12.70;99.90;;;;;;5045326;28;20449;-79
2021/10/12 11:41:25;;;;;;;0.50;0.40;;;12.70;99.90;;;;;;5044255;28;20231;-78
2021/10/12 11:43:54;;;;;;;2.90;1.50;;;12.80;99.90;;;;;;5045695;28;20199;-79
2021/10/12 11:46:24;;;;;;;1.65;1.13;;;12.90;99.90;;;;;;5045747;28;20202;-79
2021/10/12 11:48:51;;;;;;;0.50;0.40;;;13.10;99.90;;;;;;5044317;28;20203;-77
2021/10/12 11:51:23;;;;;;;2.50;1.27;;;13.30;99.90;;;;;;5043616;28;20227;-78
2021/10/12 11:53:52;;;;;;;0.97;0.83;;;13.90;99.90;;;;;;5044443;28;20994;-78
2021/10/12 11:56:21;;;;;;;0.50;0.35;;;14.40;99.90;;;;;;5045634;28;20449;-78
2021/10/12 11:58:49;;;;;;;0.50;0.40;;;14.60;99.90;;;;;;5045519;28;20203;-78
2021/10/12 12:01:29;;;;;;;0.90;0.73;;;15.70;99.90;;;;;;5041096;28;20462;-78
2021/10/12 12:03:56;;;;;;;2.20;2.00;;;16.80;99.90;;;;;;5039578;28;20443;-78
2021/10/12 12:06:26;;;;;;;0.50;0.40;;;17.50;99.90;;;;;;5045278;28;20443;-78
2021/10/12 12:08:54;;;;;;;0.50;0.30;;;18.10;99.90;;;;;;5044920;28;20431;-78
2021/10/12 12:11:24;;;;;;;0.50;0.40;;;18.20;99.90;;;;;;5044497;28;20460;-78
2021/10/12 12:13:51;;;;;;;0.70;0.60;;;18.00;99.90;;;;;;5045064;28;20478;-78
2021/10/12 12:16:19;;;;;;;0.50;0.40;;;17.90;99.90;;;;;;5045045;28;20516;-78
2021/10/12 12:18:47;;;;;;;0.50;0.30;;;17.80;99.90;;;;;;5043748;28;20513;-78
2021/10/12 12:21:14;;;;;;;0.50;0.40;;;17.40;99.90;;;;;;5042962;28;20463;-77
2021/10/12 12:23:43;;;;;;;0.60;0.60;;;17.30;99.90;;;;;;5043825;28;20438;-78
2021/10/12 12:26:12;;;;;;;0.50;0.40;;;17.10;99.90;;;;;;5042590;28;21055;-79
2021/10/12 12:28:40;;;;;;;1.43;0.93;;;16.90;99.90;;;;;;5042101;28;20438;-78
2021/10/12 12:31:23;;;;;;;0.50;0.40;;;16.60;99.90;;;;;;5042082;28;20462;-78
2021/10/12 12:33:53;;;;;;;0.50;0.40;;;16.60;99.90;;;;;;5040035;28;20481;-78
2021/10/12 12:36:21;;;;;;;0.93;0.93;;;16.40;99.90;;;;;;5042247;28;20442;-77
2021/10/12 12:38:48;;;;;;;0.70;0.63;;;16.10;99.90;;;;;;5041936;28;20449;-78
2021/10/12 12:41:19;;;;;;;0.50;0.40;;;15.60;99.90;;;;;;5040175;28;20466;-77
2021/10/12 12:43:55;;;;;;;0.50;0.40;;;15.20;99.90;;;;;;5042055;28;20940;-77
2021/10/12 12:46:25;;;;;;;0.50;0.40;;;14.70;99.90;;;;;;5045386;28;20442;-78
2021/10/12 12:49:10;;;;;;;0.50;0.40;;;14.40;99.90;;;;;;5043419;28;20441;-77
2021/10/12 12:51:45;;;;;;;0.50;0.40;;;14.00;99.90;;;;;;5043002;28;20423;-78
2021/10/12 12:54:33;;;;;;;0.50;0.40;;;13.70;99.90;;;;;;5042399;28;20211;-78